sensor_id;sensor_type;location;lat;lon;timestamp;pressure;altitude;pressure_sealevel;temperature;humidity
10958;BME280;5531;42.570;23.676;2023-04-03T00:01:38;91368.88;;;7.90;69.74
10958;BME280;5531;42.570;23.676;2023-04-03T00:04:08;91371.50;;;7.97;69.96
10958;BME280;5531;42.570;23.676;2023-04-03T00:06:36;91360.84;;;7.92;69.60
10958;BME280;5531;42.570;23.676;2023-04-03T00:09:06;91369.69;;;7.84;72.36
10958;BME280;5531;42.570;23.676;2023-04-03T00:11:37;91369.97;;;7.61;72.93
10958;BME280;5531;42.570;23.676;2023-04-03T00:14:06;91364.34;;;7.57;75.72
10958;BME280;5531;42.570;23.676;2023-04-03T00:16:35;91357.41;;;7.71;74.77
10958;BME280;5531;42.570;23.676;2023-04-03T00:19:04;91356.78;;;7.69;73.09
10958;BME280;5531;42.570;23.676;2023-04-03T00:21:33;91350.78;;;7.75;74.44
10958;BME280;5531;42.570;23.676;2023-04-03T00:24:02;91359.44;;;7.82;74.04
10958;BME280;5531;42.570;23.676;2023-04-03T00:26:31;91356.84;;;7.82;72.91
10958;BME280;5531;42.570;23.676;2023-04-03T00:29:03;91360.63;;;7.80;73.49
10958;BME280;5531;42.570;23.676;2023-04-03T00:31:32;91356.84;;;7.82;72.42
10958;BME280;5531;42.570;23.676;2023-04-03T00:34:01;91360.22;;;7.76;71.83
10958;BME280;5531;42.570;23.676;2023-04-03T00:36:30;91350.59;;;7.77;71.81
10958;BME280;5531;42.570;23.676;2023-04-03T00:38:59;91358.59;;;7.75;71.74
10958;BME280;5531;42.570;23.676;2023-04-03T00:41:28;91354.00;;;7.77;71.63
10958;BME280;5531;42.570;23.676;2023-04-03T00:43:57;91359.78;;;7.66;71.10
10958;BME280;5531;42.570;23.676;2023-04-03T00:46:29;91359.72;;;7.52;71.40
10958;BME280;5531;42.570;23.676;2023-04-03T00:48:58;91356.94;;;7.54;71.90
10958;BME280;5531;42.570;23.676;2023-04-03T00:51:27;91367.19;;;7.62;71.84
10958;BME280;5531;42.570;23.676;2023-04-03T00:53:59;91367.38;;;7.61;70.85
10958;BME280;5531;42.570;23.676;2023-04-03T00:56:29;91356.91;;;7.47;71.86
10958;BME280;5531;42.570;23.676;2023-04-03T00:59:01;91366.50;;;7.40;73.06
10958;BME280;5531;42.570;23.676;2023-04-03T01:01:33;91365.44;;;7.28;74.42
10958;BME280;5531;42.570;23.676;2023-04-03T01:04:04;91357.22;;;7.31;76.22
10958;BME280;5531;42.570;23.676;2023-04-03T01:06:35;91356.84;;;7.34;76.53
10958;BME280;5531;42.570;23.676;2023-04-03T01:09:05;91357.47;;;7.43;74.84
10958;BME280;5531;42.570;23.676;2023-04-03T01:11:34;91367.94;;;7.49;74.81
10958;BME280;5531;42.570;23.676;2023-04-03T01:14:03;91361.53;;;7.52;75.01
10958;BME280;5531;42.570;23.676;2023-04-03T01:16:35;91361.56;;;7.59;75.24
10958;BME280;5531;42.570;23.676;2023-04-03T01:19:05;91360.97;;;7.63;74.30
10958;BME280;5531;42.570;23.676;2023-04-03T01:22:03;91362.16;;;7.61;75.03
10958;BME280;5531;42.570;23.676;2023-04-03T01:24:37;91367.50;;;7.46;77.92
10958;BME280;5531;42.570;23.676;2023-04-03T01:27:09;91360.56;;;7.53;76.25
10958;BME280;5531;42.570;23.676;2023-04-03T01:29:40;91365.16;;;7.58;75.42
10958;BME280;5531;42.570;23.676;2023-04-03T01:32:12;91364.75;;;7.61;74.95
10958;BME280;5531;42.570;23.676;2023-04-03T01:34:41;91370.81;;;7.61;75.31
10958;BME280;5531;42.570;23.676;2023-04-03T01:37:10;91368.41;;;7.66;74.61
10958;BME280;5531;42.570;23.676;2023-04-03T01:39:39;91359.78;;;7.66;74.70
10958;BME280;5531;42.570;23.676;2023-04-03T01:42:08;91368.81;;;7.63;74.99
10958;BME280;5531;42.570;23.676;2023-04-03T01:44:38;91363.50;;;7.43;76.10
10958;BME280;5531;42.570;23.676;2023-04-03T01:47:07;91365.63;;;7.26;78.56
10958;BME280;5531;42.570;23.676;2023-04-03T01:49:39;91354.97;;;7.21;78.90
10958;BME280;5531;42.570;23.676;2023-04-03T01:52:08;91361.81;;;7.22;79.24
10958;BME280;5531;42.570;23.676;2023-04-03T01:54:36;91362.97;;;7.20;78.98
10958;BME280;5531;42.570;23.676;2023-04-03T01:57:06;91367.22;;;7.21;78.08
10958;BME280;5531;42.570;23.676;2023-04-03T01:59:35;91367.44;;;7.26;77.29
10958;BME280;5531;42.570;23.676;2023-04-03T02:02:03;91371.25;;;7.30;77.25
10958;BME280;5531;42.570;23.676;2023-04-03T02:04:32;91372.66;;;7.32;77.08
10958;BME280;5531;42.570;23.676;2023-04-03T02:07:04;91364.66;;;7.34;76.80
10958;BME280;5531;42.570;23.676;2023-04-03T02:09:33;91369.28;;;7.32;76.67
10958;BME280;5531;42.570;23.676;2023-04-03T02:12:02;91365.66;;;7.33;77.01
10958;BME280;5531;42.570;23.676;2023-04-03T02:14:31;91363.03;;;7.33;77.05
10958;BME280;5531;42.570;23.676;2023-04-03T02:17:00;91367.88;;;7.36;76.80
10958;BME280;5531;42.570;23.676;2023-04-03T02:19:30;91359.25;;;7.36;76.75
10958;BME280;5531;42.570;23.676;2023-04-03T02:21:59;91356.06;;;7.33;76.31
10958;BME280;5531;42.570;23.676;2023-04-03T02:24:31;91357.03;;;7.32;76.82
10958;BME280;5531;42.570;23.676;2023-04-03T02:27:00;91357.84;;;7.33;76.08
10958;BME280;5531;42.570;23.676;2023-04-03T02:29:29;91347.97;;;7.28;76.80
10958;BME280;5531;42.570;23.676;2023-04-03T02:31:58;91348.41;;;7.25;77.71
10958;BME280;5531;42.570;23.676;2023-04-03T02:34:27;91345.72;;;7.19;77.07
10958;BME280;5531;42.570;23.676;2023-04-03T02:36:56;91340.75;;;7.17;76.86
10958;BME280;5531;42.570;23.676;2023-04-03T02:39:25;91351.06;;;7.04;79.91
10958;BME280;5531;42.570;23.676;2023-04-03T02:41:57;91349.81;;;6.93;79.51
10958;BME280;5531;42.570;23.676;2023-04-03T02:44:26;91343.03;;;6.64;80.95
10958;BME280;5531;42.570;23.676;2023-04-03T02:46:55;91348.38;;;6.55;81.64
10958;BME280;5531;42.570;23.676;2023-04-03T02:49:24;91348.31;;;6.49;82.89
10958;BME280;5531;42.570;23.676;2023-04-03T02:51:53;91344.66;;;6.43;83.19
10958;BME280;5531;42.570;23.676;2023-04-03T02:54:21;91341.03;;;6.37;83.38
10958;BME280;5531;42.570;23.676;2023-04-03T02:56:57;91344.59;;;6.36;83.73
10958;BME280;5531;42.570;23.676;2023-04-03T02:59:27;91339.53;;;6.28;83.90
10958;BME280;5531;42.570;23.676;2023-04-03T03:01:55;91332.09;;;6.25;84.93
10958;BME280;5531;42.570;23.676;2023-04-03T03:04:24;91332.59;;;6.35;84.58
10958;BME280;5531;42.570;23.676;2023-04-03T03:06:53;91323.84;;;6.43;83.93
10958;BME280;5531;42.570;23.676;2023-04-03T03:09:23;91326.88;;;6.47;83.95
10958;BME280;5531;42.570;23.676;2023-04-03T03:11:52;91319.69;;;6.49;83.82
10958;BME280;5531;42.570;23.676;2023-04-03T03:14:23;91324.13;;;6.55;83.36
10958;BME280;5531;42.570;23.676;2023-04-03T03:16:52;91315.53;;;6.54;84.29
10958;BME280;5531;42.570;23.676;2023-04-03T03:19:22;91313.53;;;6.56;84.64
10958;BME280;5531;42.570;23.676;2023-04-03T03:21:51;91317.78;;;6.64;84.52
10958;BME280;5531;42.570;23.676;2023-04-03T03:24:19;91321.22;;;6.71;84.29
10958;BME280;5531;42.570;23.676;2023-04-03T03:26:48;91308.28;;;6.78;83.72
10958;BME280;5531;42.570;23.676;2023-04-03T03:29:17;91310.72;;;6.86;83.69
10958;BME280;5531;42.570;23.676;2023-04-03T03:31:49;91316.72;;;6.87;84.66
10958;BME280;5531;42.570;23.676;2023-04-03T03:34:18;91309.69;;;6.81;85.19
10958;BME280;5531;42.570;23.676;2023-04-03T03:36:47;91305.28;;;6.81;83.68
10958;BME280;5531;42.570;23.676;2023-04-03T03:39:17;91301.13;;;6.87;83.17
10958;BME280;5531;42.570;23.676;2023-04-03T03:41:46;91303.53;;;6.88;82.81
10958;BME280;5531;42.570;23.676;2023-04-03T03:44:15;91293.91;;;6.89;82.41
10958;BME280;5531;42.570;23.676;2023-04-03T03:46:44;91303.75;;;6.93;82.37
10958;BME280;5531;42.570;23.676;2023-04-03T03:49:16;91310.94;;;6.91;82.35
10958;BME280;5531;42.570;23.676;2023-04-03T03:51:45;91313.56;;;6.91;82.28
10958;BME280;5531;42.570;23.676;2023-04-03T03:54:14;91314.53;;;6.90;81.79
10958;BME280;5531;42.570;23.676;2023-04-03T03:56:43;91307.78;;;6.96;82.13
10958;BME280;5531;42.570;23.676;2023-04-03T03:59:12;91309.78;;;7.01;81.23
10958;BME280;5531;42.570;23.676;2023-04-03T04:01:42;91303.56;;;6.95;81.93
10958;BME280;5531;42.570;23.676;2023-04-03T04:04:11;91313.75;;;6.90;82.37
10958;BME280;5531;42.570;23.676;2023-04-03T04:06:42;91310.13;;;6.91;82.21
10958;BME280;5531;42.570;23.676;2023-04-03T04:09:12;91307.50;;;6.84;81.98
10958;BME280;5531;42.570;23.676;2023-04-03T04:11:41;91302.44;;;6.76;82.73
10958;BME280;5531;42.570;23.676;2023-04-03T04:14:10;91309.28;;;6.49;84.82
10958;BME280;5531;42.570;23.676;2023-04-03T04:16:40;91298.38;;;6.38;85.20
10958;BME280;5531;42.570;23.676;2023-04-03T04:19:09;91312.03;;;6.40;85.87
10958;BME280;5531;42.570;23.676;2023-04-03T04:21:38;91312.41;;;6.37;87.11
10958;BME280;5531;42.570;23.676;2023-04-03T04:24:11;91310.69;;;6.23;87.68
10958;BME280;5531;42.570;23.676;2023-04-03T04:26:40;91313.66;;;6.20;88.89
10958;BME280;5531;42.570;23.676;2023-04-03T04:29:09;91319.50;;;6.00;90.00
10958;BME280;5531;42.570;23.676;2023-04-03T04:31:38;91327.16;;;6.09;87.52
10958;BME280;5531;42.570;23.676;2023-04-03T04:34:07;91338.34;;;5.87;88.46
10958;BME280;5531;42.570;23.676;2023-04-03T04:36:38;91336.09;;;5.63;90.52
10958;BME280;5531;42.570;23.676;2023-04-03T04:39:10;91332.84;;;5.76;88.83
10958;BME280;5531;42.570;23.676;2023-04-03T04:41:39;91340.09;;;5.80;88.99
10958;BME280;5531;42.570;23.676;2023-04-03T04:44:08;91347.94;;;5.87;88.28
10958;BME280;5531;42.570;23.676;2023-04-03T04:46:37;91352.19;;;5.73;90.30
10958;BME280;5531;42.570;23.676;2023-04-03T04:49:07;91351.88;;;5.83;89.85
10958;BME280;5531;42.570;23.676;2023-04-03T04:51:36;91349.59;;;5.95;89.87
10958;BME280;5531;42.570;23.676;2023-04-03T04:54:05;91352.81;;;6.12;90.83
10958;BME280;5531;42.570;23.676;2023-04-03T04:56:36;91353.72;;;6.26;89.39
10958;BME280;5531;42.570;23.676;2023-04-03T04:59:06;91367.59;;;6.33;88.50
10958;BME280;5531;42.570;23.676;2023-04-03T05:01:35;91363.78;;;6.35;87.75
10958;BME280;5531;42.570;23.676;2023-04-03T05:04:04;91372.84;;;6.39;87.62
10958;BME280;5531;42.570;23.676;2023-04-03T05:06:33;91364.41;;;6.59;87.90
10958;BME280;5531;42.570;23.676;2023-04-03T05:09:02;91380.13;;;6.72;87.44
10958;BME280;5531;42.570;23.676;2023-04-03T05:11:32;91373.59;;;6.83;86.84
10958;BME280;5531;42.570;23.676;2023-04-03T05:14:04;91371.28;;;7.02;85.87
10958;BME280;5531;42.570;23.676;2023-04-03T05:16:34;91368.34;;;7.11;85.96
10958;BME280;5531;42.570;23.676;2023-04-03T05:19:03;91365.28;;;7.01;88.13
10958;BME280;5531;42.570;23.676;2023-04-03T05:21:32;91365.22;;;6.88;89.17
10958;BME280;5531;42.570;23.676;2023-04-03T05:24:01;91359.13;;;6.81;89.11
10958;BME280;5531;42.570;23.676;2023-04-03T05:26:31;91357.41;;;6.88;89.17
10958;BME280;5531;42.570;23.676;2023-04-03T05:29:03;91362.69;;;7.01;88.51
10958;BME280;5531;42.570;23.676;2023-04-03T05:31:32;91358.53;;;7.13;87.85
10958;BME280;5531;42.570;23.676;2023-04-03T05:34:01;91357.38;;;7.23;86.45
10958;BME280;5531;42.570;23.676;2023-04-03T05:36:30;91358.03;;;7.31;86.57
10958;BME280;5531;42.570;23.676;2023-04-03T05:38:59;91360.03;;;7.29;85.08
10958;BME280;5531;42.570;23.676;2023-04-03T05:41:28;91357.84;;;7.40;86.23
10958;BME280;5531;42.570;23.676;2023-04-03T05:43:57;91356.88;;;7.41;85.41
10958;BME280;5531;42.570;23.676;2023-04-03T05:46:29;91366.31;;;7.42;86.34
10958;BME280;5531;42.570;23.676;2023-04-03T05:48:58;91366.28;;;7.35;86.99
10958;BME280;5531;42.570;23.676;2023-04-03T05:51:30;91361.91;;;7.42;86.52
10958;BME280;5531;42.570;23.676;2023-04-03T05:54:04;91364.34;;;7.50;86.20
10958;BME280;5531;42.570;23.676;2023-04-03T05:56:35;91370.88;;;7.40;85.09
10958;BME280;5531;42.570;23.676;2023-04-03T05:59:04;91364.53;;;7.49;85.15
10958;BME280;5531;42.570;23.676;2023-04-03T06:01:36;91361.56;;;7.59;85.37
10958;BME280;5531;42.570;23.676;2023-04-03T06:04:05;91352.38;;;7.69;85.38
10958;BME280;5531;42.570;23.676;2023-04-03T06:06:45;91357.44;;;7.84;84.14
10958;BME280;5531;42.570;23.676;2023-04-03T06:09:15;91355.63;;;7.85;83.62
10958;BME280;5531;42.570;23.676;2023-04-03T06:11:45;91355.22;;;7.81;82.86
10958;BME280;5531;42.570;23.676;2023-04-03T06:14:14;91361.44;;;7.80;83.15
10958;BME280;5531;42.570;23.676;2023-04-03T06:16:46;91355.38;;;7.66;84.31
10958;BME280;5531;42.570;23.676;2023-04-03T06:19:15;91360.78;;;7.65;84.10
10958;BME280;5531;42.570;23.676;2023-04-03T06:21:44;91352.41;;;7.76;83.43
10958;BME280;5531;42.570;23.676;2023-04-03T06:24:15;91349.63;;;7.84;84.78
10958;BME280;5531;42.570;23.676;2023-04-03T06:26:45;91356.84;;;7.82;83.19
10958;BME280;5531;42.570;23.676;2023-04-03T06:29:14;91359.84;;;7.79;84.79
10958;BME280;5531;42.570;23.676;2023-04-03T06:31:46;91365.84;;;7.80;83.95
10958;BME280;5531;42.570;23.676;2023-04-03T06:34:16;91355.59;;;7.78;84.12
10958;BME280;5531;42.570;23.676;2023-04-03T06:36:46;91356.38;;;7.72;85.78
10958;BME280;5531;42.570;23.676;2023-04-03T06:39:18;91364.97;;;7.66;85.70
10958;BME280;5531;42.570;23.676;2023-04-03T06:41:49;91365.22;;;7.71;86.00
10958;BME280;5531;42.570;23.676;2023-04-03T06:44:18;91361.63;;;7.79;85.79
10958;BME280;5531;42.570;23.676;2023-04-03T06:46:50;91362.25;;;7.81;85.42
10958;BME280;5531;42.570;23.676;2023-04-03T06:49:20;91357.81;;;7.75;85.42
10958;BME280;5531;42.570;23.676;2023-04-03T06:51:49;91373.69;;;7.86;86.47
10958;BME280;5531;42.570;23.676;2023-04-03T06:54:18;91373.91;;;7.98;85.11
10958;BME280;5531;42.570;23.676;2023-04-03T06:56:47;91371.31;;;8.05;84.63
10958;BME280;5531;42.570;23.676;2023-04-03T06:59:16;91363.72;;;8.10;83.96
10958;BME280;5531;42.570;23.676;2023-04-03T07:01:45;91363.34;;;8.13;83.71
10958;BME280;5531;42.570;23.676;2023-04-03T07:04:17;91365.97;;;8.20;84.56
10958;BME280;5531;42.570;23.676;2023-04-03T07:06:46;91369.97;;;8.36;83.88
10958;BME280;5531;42.570;23.676;2023-04-03T07:09:16;91361.94;;;8.37;82.87
10958;BME280;5531;42.570;23.676;2023-04-03T07:11:45;91357.19;;;8.48;82.53
10958;BME280;5531;42.570;23.676;2023-04-03T07:14:15;91359.59;;;8.69;82.29
10958;BME280;5531;42.570;23.676;2023-04-03T07:16:44;91367.22;;;8.77;82.08
10958;BME280;5531;42.570;23.676;2023-04-03T07:19:13;91357.56;;;8.85;81.29
10958;BME280;5531;42.570;23.676;2023-04-03T07:21:46;91359.78;;;8.81;81.33
10958;BME280;5531;42.570;23.676;2023-04-03T07:24:15;91363.81;;;8.84;81.39
10958;BME280;5531;42.570;23.676;2023-04-03T07:26:44;91366.22;;;8.92;81.13
10958;BME280;5531;42.570;23.676;2023-04-03T07:29:14;91359.78;;;8.88;80.13
10958;BME280;5531;42.570;23.676;2023-04-03T07:31:43;91368.00;;;8.78;81.06
10958;BME280;5531;42.570;23.676;2023-04-03T07:34:12;91355.56;;;8.87;81.87
10958;BME280;5531;42.570;23.676;2023-04-03T07:36:41;91336.47;;;8.99;80.86
10958;BME280;5531;42.570;23.676;2023-04-03T07:39:13;91336.84;;;9.10;82.77
10958;BME280;5531;42.570;23.676;2023-04-03T07:41:42;91329.59;;;9.05;80.57
10958;BME280;5531;42.570;23.676;2023-04-03T07:44:11;91331.44;;;8.85;80.33
10958;BME280;5531;42.570;23.676;2023-04-03T07:46:40;91341.69;;;8.79;82.13
10958;BME280;5531;42.570;23.676;2023-04-03T07:49:09;91329.03;;;8.76;82.64
10958;BME280;5531;42.570;23.676;2023-04-03T07:51:38;91335.28;;;8.82;83.74
10958;BME280;5531;42.570;23.676;2023-04-03T07:54:07;91331.84;;;8.81;82.08
10958;BME280;5531;42.570;23.676;2023-04-03T07:56:39;91333.47;;;8.83;82.26
10958;BME280;5531;42.570;23.676;2023-04-03T07:59:08;91336.06;;;8.76;84.80
10958;BME280;5531;42.570;23.676;2023-04-03T08:01:37;91340.72;;;8.74;84.87
10958;BME280;5531;42.570;23.676;2023-04-03T08:04:07;91329.22;;;8.81;84.52
10958;BME280;5531;42.570;23.676;2023-04-03T08:06:36;91324.84;;;8.82;82.65
10958;BME280;5531;42.570;23.676;2023-04-03T08:09:05;91338.69;;;8.83;84.93
10958;BME280;5531;42.570;23.676;2023-04-03T08:11:34;91330.84;;;8.83;82.46
10958;BME280;5531;42.570;23.676;2023-04-03T08:14:05;91326.84;;;8.87;81.96
10958;BME280;5531;42.570;23.676;2023-04-03T08:16:41;91329.44;;;8.87;82.22
10958;BME280;5531;42.570;23.676;2023-04-03T08:19:10;91333.00;;;9.06;83.86
10958;BME280;5531;42.570;23.676;2023-04-03T08:21:40;91334.00;;;9.25;83.55
10958;BME280;5531;42.570;23.676;2023-04-03T08:24:09;91333.19;;;9.24;81.03
10958;BME280;5531;42.570;23.676;2023-04-03T08:26:38;91328.34;;;9.28;80.48
10958;BME280;5531;42.570;23.676;2023-04-03T08:29:10;91319.13;;;9.18;80.76
10958;BME280;5531;42.570;23.676;2023-04-03T08:31:39;91321.16;;;9.16;80.67
10958;BME280;5531;42.570;23.676;2023-04-03T08:34:08;91320.34;;;9.16;81.32
10958;BME280;5531;42.570;23.676;2023-04-03T08:36:38;91321.09;;;9.30;80.45
10958;BME280;5531;42.570;23.676;2023-04-03T08:39:07;91319.44;;;9.49;81.23
10958;BME280;5531;42.570;23.676;2023-04-03T08:41:38;91322.06;;;9.49;80.47
10958;BME280;5531;42.570;23.676;2023-04-03T08:44:17;91318.63;;;9.55;80.89
10958;BME280;5531;42.570;23.676;2023-04-03T08:47:04;91311.13;;;9.65;80.02
10958;BME280;5531;42.570;23.676;2023-04-03T08:49:40;91302.78;;;9.82;78.36
10958;BME280;5531;42.570;23.676;2023-04-03T08:52:16;91305.16;;;9.90;77.67
10958;BME280;5531;42.570;23.676;2023-04-03T08:54:51;91300.66;;;10.04;77.02
10958;BME280;5531;42.570;23.676;2023-04-03T08:57:28;91301.56;;;10.16;77.63
10958;BME280;5531;42.570;23.676;2023-04-03T09:00:06;91305.19;;;10.22;77.44
10958;BME280;5531;42.570;23.676;2023-04-03T09:02:42;91300.63;;;10.11;76.87
10958;BME280;5531;42.570;23.676;2023-04-03T09:05:14;91294.59;;;10.03;79.01
10958;BME280;5531;42.570;23.676;2023-04-03T09:07:46;91291.00;;;10.04;83.72
10958;BME280;5531;42.570;23.676;2023-04-03T09:10:23;91281.53;;;10.03;78.30
10958;BME280;5531;42.570;23.676;2023-04-03T09:12:58;91287.56;;;10.04;79.61
10958;BME280;5531;42.570;23.676;2023-04-03T09:15:31;91286.50;;;10.12;79.17
10958;BME280;5531;42.570;23.676;2023-04-03T09:18:04;91288.84;;;10.20;79.39
10958;BME280;5531;42.570;23.676;2023-04-03T09:20:41;91284.59;;;10.32;77.49
10958;BME280;5531;42.570;23.676;2023-04-03T09:23:28;91281.66;;;10.47;76.54
10958;BME280;5531;42.570;23.676;2023-04-03T09:26:02;91282.34;;;10.36;76.12
10958;BME280;5531;42.570;23.676;2023-04-03T09:28:34;91279.25;;;10.45;76.92
10958;BME280;5531;42.570;23.676;2023-04-03T09:31:16;91279.81;;;10.48;76.09
10958;BME280;5531;42.570;23.676;2023-04-03T09:33:46;91264.28;;;10.53;75.78
10958;BME280;5531;42.570;23.676;2023-04-03T09:36:38;91268.78;;;10.45;77.41
10958;BME280;5531;42.570;23.676;2023-04-03T09:39:12;91257.56;;;10.38;77.48
10958;BME280;5531;42.570;23.676;2023-04-03T09:41:43;91271.03;;;10.42;79.39
10958;BME280;5531;42.570;23.676;2023-04-03T09:44:25;91271.28;;;10.59;79.03
10958;BME280;5531;42.570;23.676;2023-04-03T09:46:57;91261.50;;;10.73;78.01
10958;BME280;5531;42.570;23.676;2023-04-03T09:49:26;91261.84;;;10.76;75.11
10958;BME280;5531;42.570;23.676;2023-04-03T09:51:56;91264.69;;;10.75;76.08
10958;BME280;5531;42.570;23.676;2023-04-03T09:54:32;91266.72;;;10.73;76.09
10958;BME280;5531;42.570;23.676;2023-04-03T09:57:06;91255.66;;;10.71;75.30
10958;BME280;5531;42.570;23.676;2023-04-03T09:59:45;91258.50;;;10.69;76.25
10958;BME280;5531;42.570;23.676;2023-04-03T10:02:31;91256.31;;;10.66;75.75
10958;BME280;5531;42.570;23.676;2023-04-03T10:05:02;91248.78;;;10.51;75.41
10958;BME280;5531;42.570;23.676;2023-04-03T10:07:34;91256.09;;;10.42;76.04
10958;BME280;5531;42.570;23.676;2023-04-03T10:10:17;91250.13;;;10.35;76.31
10958;BME280;5531;42.570;23.676;2023-04-03T10:12:49;91243.28;;;10.34;77.58
10958;BME280;5531;42.570;23.676;2023-04-03T10:15:36;91250.28;;;10.40;78.62
10958;BME280;5531;42.570;23.676;2023-04-03T10:18:24;91245.13;;;10.52;78.48
10958;BME280;5531;42.570;23.676;2023-04-03T10:20:58;91252.94;;;10.59;79.15
10958;BME280;5531;42.570;23.676;2023-04-03T10:23:33;91245.13;;;10.52;75.05
10958;BME280;5531;42.570;23.676;2023-04-03T10:26:14;91251.72;;;10.61;73.91
10958;BME280;5531;42.570;23.676;2023-04-03T10:28:50;91252.78;;;10.54;73.64
10958;BME280;5531;42.570;23.676;2023-04-03T10:31:28;91244.78;;;10.49;72.49
10958;BME280;5531;42.570;23.676;2023-04-03T10:34:05;91233.50;;;10.48;73.45
10958;BME280;5531;42.570;23.676;2023-04-03T10:36:40;91234.44;;;10.54;73.72
10958;BME280;5531;42.570;23.676;2023-04-03T10:39:25;91233.88;;;10.52;73.02
10958;BME280;5531;42.570;23.676;2023-04-03T10:42:03;91240.13;;;10.51;73.03
10958;BME280;5531;42.570;23.676;2023-04-03T10:44:43;91235.03;;;10.31;75.47
10958;BME280;5531;42.570;23.676;2023-04-03T10:47:20;91234.56;;;10.40;76.18
10958;BME280;5531;42.570;23.676;2023-04-03T10:49:58;91237.34;;;10.45;77.43
10958;BME280;5531;42.570;23.676;2023-04-03T10:52:34;91238.69;;;10.55;78.21
10958;BME280;5531;42.570;23.676;2023-04-03T10:55:16;91238.47;;;10.56;79.70
10958;BME280;5531;42.570;23.676;2023-04-03T10:57:50;91241.56;;;10.47;80.33
10958;BME280;5531;42.570;23.676;2023-04-03T11:00:21;91242.69;;;10.32;79.67
10958;BME280;5531;42.570;23.676;2023-04-03T11:02:54;91236.44;;;10.26;81.28
10958;BME280;5531;42.570;23.676;2023-04-03T11:05:32;91240.09;;;10.25;81.67
10958;BME280;5531;42.570;23.676;2023-04-03T11:08:10;91248.84;;;10.13;82.32
10958;BME280;5531;42.570;23.676;2023-04-03T11:10:44;91245.16;;;9.95;85.02
10958;BME280;5531;42.570;23.676;2023-04-03T11:13:17;91233.50;;;9.91;85.16
10958;BME280;5531;42.570;23.676;2023-04-03T11:15:49;91239.38;;;9.86;86.54
10958;BME280;5531;42.570;23.676;2023-04-03T11:18:25;91231.44;;;9.68;87.04
10958;BME280;5531;42.570;23.676;2023-04-03T11:21:03;91237.09;;;9.58;88.96
10958;BME280;5531;42.570;23.676;2023-04-03T11:23:35;91236.66;;;9.29;88.92
10958;BME280;5531;42.570;23.676;2023-04-03T11:26:10;91237.28;;;9.25;89.80
10958;BME280;5531;42.570;23.676;2023-04-03T11:28:40;91239.88;;;9.31;91.83
10958;BME280;5531;42.570;23.676;2023-04-03T11:31:20;91236.25;;;9.32;91.82
10958;BME280;5531;42.570;23.676;2023-04-03T11:34:02;91235.09;;;9.22;92.06
10958;BME280;5531;42.570;23.676;2023-04-03T11:36:40;91228.41;;;9.32;94.72
10958;BME280;5531;42.570;23.676;2023-04-03T11:39:19;91235.25;;;9.27;95.19
10958;BME280;5531;42.570;23.676;2023-04-03T11:41:50;91243.16;;;9.13;94.79
10958;BME280;5531;42.570;23.676;2023-04-03T11:44:34;91238.81;;;8.94;95.76
10958;BME280;5531;42.570;23.676;2023-04-03T11:47:06;91241.81;;;8.97;97.30
10958;BME280;5531;42.570;23.676;2023-04-03T11:49:56;91236.59;;;8.91;96.07
10958;BME280;5531;42.570;23.676;2023-04-03T11:52:59;91241.47;;;8.80;96.98
10958;BME280;5531;42.570;23.676;2023-04-03T11:55:52;91236.69;;;8.64;97.18
10958;BME280;5531;42.570;23.676;2023-04-03T11:58:23;91234.84;;;8.65;99.28
10958;BME280;5531;42.570;23.676;2023-04-03T12:00:56;91235.06;;;8.56;100.00
10958;BME280;5531;42.570;23.676;2023-04-03T12:03:56;91231.25;;;8.52;100.00
10958;BME280;5531;42.570;23.676;2023-04-03T12:09:59;91235.50;;;8.26;100.00
10958;BME280;5531;42.570;23.676;2023-04-03T12:12:35;91230.84;;;8.35;100.00
10958;BME280;5531;42.570;23.676;2023-04-03T12:15:20;91231.06;;;8.27;100.00
10958;BME280;5531;42.570;23.676;2023-04-03T12:17:50;91224.84;;;8.01;100.00
10958;BME280;5531;42.570;23.676;2023-04-03T12:23:34;91224.66;;;7.89;100.00
10958;BME280;5531;42.570;23.676;2023-04-03T12:26:21;91221.66;;;7.93;100.00
10958;BME280;5531;42.570;23.676;2023-04-03T12:28:53;91209.41;;;7.86;100.00
10958;BME280;5531;42.570;23.676;2023-04-03T12:31:25;91200.97;;;7.84;100.00
10958;BME280;5531;42.570;23.676;2023-04-03T12:34:12;91199.16;;;7.92;100.00
10958;BME280;5531;42.570;23.676;2023-04-03T12:36:52;91196.75;;;7.83;100.00
10958;BME280;5531;42.570;23.676;2023-04-03T12:39:48;91198.38;;;7.84;100.00
10958;BME280;5531;42.570;23.676;2023-04-03T12:42:55;91192.13;;;7.85;100.00
10958;BME280;5531;42.570;23.676;2023-04-03T12:45:40;91190.75;;;7.89;100.00
10958;BME280;5531;42.570;23.676;2023-04-03T12:48:17;91190.56;;;7.71;100.00
10958;BME280;5531;42.570;23.676;2023-04-03T12:50:47;91181.50;;;7.67;100.00
10958;BME280;5531;42.570;23.676;2023-04-03T12:53:19;91177.09;;;7.67;100.00
10958;BME280;5531;42.570;23.676;2023-04-03T12:55:54;91173.88;;;7.65;100.00
10958;BME280;5531;42.570;23.676;2023-04-03T12:58:28;91162.66;;;7.78;100.00
10958;BME280;5531;42.570;23.676;2023-04-03T13:01:02;91153.44;;;7.76;100.00
10958;BME280;5531;42.570;23.676;2023-04-03T13:03:32;91152.63;;;7.82;100.00
10958;BME280;5531;42.570;23.676;2023-04-03T13:06:01;91169.69;;;7.71;100.00
10958;BME280;5531;42.570;23.676;2023-04-03T13:08:31;91174.28;;;7.69;100.00
10958;BME280;5531;42.570;23.676;2023-04-03T13:11:02;91164.88;;;7.68;100.00
10958;BME280;5531;42.570;23.676;2023-04-03T13:13:35;91166.66;;;7.67;100.00
10958;BME280;5531;42.570;23.676;2023-04-03T13:16:08;91160.25;;;7.63;100.00
10958;BME280;5531;42.570;23.676;2023-04-03T13:18:39;91170.28;;;7.73;100.00
10958;BME280;5531;42.570;23.676;2023-04-03T13:21:15;91180.13;;;7.78;100.00
10958;BME280;5531;42.570;23.676;2023-04-03T13:23:48;91167.50;;;7.75;100.00
10958;BME280;5531;42.570;23.676;2023-04-03T13:26:18;91165.88;;;7.74;100.00
10958;BME280;5531;42.570;23.676;2023-04-03T13:28:51;91160.47;;;7.82;100.00
10958;BME280;5531;42.570;23.676;2023-04-03T13:31:26;91157.06;;;7.88;100.00
10958;BME280;5531;42.570;23.676;2023-04-03T13:34:03;91156.44;;;7.93;100.00
10958;BME280;5531;42.570;23.676;2023-04-03T13:36:36;91158.06;;;8.00;100.00
10958;BME280;5531;42.570;23.676;2023-04-03T13:39:21;91148.00;;;8.04;100.00
10958;BME280;5531;42.570;23.676;2023-04-03T13:41:52;91157.03;;;8.01;100.00